createdAt,value
2022-11-16T00:03:47.052Z,12.93
2022-11-16T00:09:06.433Z,12.23
2022-11-16T00:14:09.434Z,11.43
2022-11-16T00:19:14.090Z,11.73
2022-11-16T00:24:18.468Z,12.07
2022-11-16T00:29:23.442Z,13.87
2022-11-16T00:34:27.786Z,8.03
2022-11-16T00:39:30.674Z,9.90
2022-11-16T00:44:33.640Z,12.70
2022-11-16T00:49:38.503Z,13.60
2022-11-16T00:54:41.605Z,12.60
2022-11-16T00:59:44.833Z,13.67
2022-11-16T01:04:49.162Z,13.10
2022-11-16T01:09:52.118Z,12.67
2022-11-16T01:14:55.207Z,10.83
2022-11-16T01:20:00.133Z,14.90
2022-11-16T01:25:03.281Z,12.00
2022-11-16T01:30:07.778Z,13.80
2022-11-16T01:35:19.789Z,12.60
2022-11-16T01:40:23.725Z,14.43
2022-11-16T01:45:38.623Z,18.53
2022-11-16T01:50:46.997Z,18.53
2022-11-16T01:55:50.320Z,14.73
2022-11-16T02:01:22.611Z,16.33
2022-11-16T02:06:42.373Z,14.77
2022-11-16T02:12:05.246Z,14.30
2022-11-16T02:17:16.030Z,14.30
2022-11-16T02:22:31.954Z,13.50
2022-11-16T02:27:56.020Z,11.13
2022-11-16T02:33:03.870Z,11.50
2022-11-16T02:38:12.612Z,10.10
2022-11-16T02:43:22.257Z,9.40
2022-11-16T02:48:32.503Z,11.53
2022-11-16T02:53:42.215Z,9.73
2022-11-16T02:58:48.951Z,9.63
2022-11-16T03:04:02.916Z,9.07
2022-11-16T03:09:12.242Z,9.50
2022-11-16T03:14:20.581Z,11.20
2022-11-16T03:19:30.905Z,10.47
2022-11-16T03:24:35.501Z,9.50
2022-11-16T03:29:43.622Z,10.50
2022-11-16T03:34:57.709Z,10.33
2022-11-16T03:40:04.991Z,11.47
2022-11-16T03:45:11.317Z,9.30
2022-11-16T03:50:16.197Z,9.83
2022-11-16T03:55:20.033Z,8.53
2022-11-16T04:00:23.454Z,8.17
2022-11-16T04:05:47.879Z,7.10
2022-11-16T04:11:08.779Z,7.77
2022-11-16T04:16:29.423Z,7.87
2022-11-16T04:21:56.266Z,8.23
2022-11-16T04:27:23.867Z,8.23
2022-11-16T04:32:44.757Z,7.33
2022-11-16T04:37:52.622Z,7.03
2022-11-16T04:43:05.010Z,7.63
2022-11-16T04:48:12.647Z,6.90
2022-11-16T04:53:17.781Z,6.20
2022-11-16T04:58:25.058Z,7.60
2022-11-16T05:03:28.231Z,7.00
2022-11-16T05:08:33.505Z,6.17
2022-11-16T05:13:37.232Z,6.40
2022-11-16T05:18:40.175Z,5.60
2022-11-16T05:24:03.195Z,5.90
2022-11-16T05:29:07.365Z,6.13
2022-11-16T05:34:10.541Z,6.23
2022-11-16T05:39:15.434Z,4.97
2022-11-16T05:44:19.107Z,6.07
2022-11-16T05:49:22.391Z,6.30
2022-11-16T05:54:27.058Z,5.93
2022-11-16T05:59:31.100Z,5.63
2022-11-16T06:04:36.744Z,6.20
2022-11-16T06:09:41.061Z,6.00
2022-11-16T06:14:51.938Z,7.00
2022-11-16T06:19:55.151Z,8.80
2022-11-16T06:24:59.500Z,10.27
2022-11-16T06:30:03.422Z,9.60
2022-11-16T06:35:08.511Z,10.07
2022-11-16T06:40:14.126Z,8.27
2022-11-16T06:45:20.671Z,7.30
2022-11-16T06:50:27.658Z,6.13
2022-11-16T06:55:33.272Z,5.90
2022-11-16T07:00:36.581Z,6.57
2022-11-16T07:05:42.068Z,6.10
2022-11-16T07:10:50.959Z,5.80
2022-11-16T07:15:53.945Z,6.40
2022-11-16T07:20:57.167Z,6.00
2022-11-16T07:26:02.426Z,5.97
2022-11-16T07:31:15.671Z,5.23
2022-11-16T07:36:20.088Z,5.07
2022-11-16T07:41:25.494Z,6.30
2022-11-16T07:46:47.078Z,5.60
2022-11-16T07:51:51.881Z,6.03
2022-11-16T07:57:10.882Z,6.07
2022-11-16T08:02:16.958Z,6.00
2022-11-16T08:07:20.570Z,6.50
2022-11-16T08:12:31.207Z,6.40
2022-11-16T08:17:34.319Z,7.20
2022-11-16T08:22:39.588Z,8.00
2022-11-16T08:27:45.760Z,7.43
2022-11-16T08:32:49.115Z,6.20
2022-11-16T08:37:52.884Z,7.03
2022-11-16T08:42:57.298Z,7.20
2022-11-16T08:48:04.066Z,7.73
2022-11-16T08:53:10.740Z,8.73
2022-11-16T08:58:15.262Z,9.30
2022-11-16T09:03:18.355Z,9.20
2022-11-16T09:08:21.305Z,10.13
2022-11-16T09:13:26.409Z,9.50
2022-11-16T09:18:30.205Z,10.63
2022-11-16T09:23:33.254Z,6.03
2022-11-16T09:28:38.103Z,5.40
2022-11-16T09:33:41.626Z,5.57
2022-11-16T09:39:17.731Z,6.13
2022-11-16T09:44:19.375Z,6.30
2022-11-16T09:49:26.381Z,6.77
2022-11-16T09:54:32.723Z,5.60
2022-11-16T09:59:42.283Z,5.87
2022-11-16T10:04:57.901Z,6.07
2022-11-16T10:10:01.561Z,6.67
2022-11-16T10:15:33.326Z,6.20
2022-11-16T10:20:51.191Z,7.80
2022-11-16T10:25:58.889Z,6.10
2022-11-16T10:31:15.297Z,6.07
2022-11-16T10:36:19.945Z,6.40
2022-11-16T10:41:30.103Z,6.70
2022-11-16T10:46:41.105Z,6.80
2022-11-16T10:51:44.164Z,5.80
2022-11-16T10:56:50.141Z,6.10
2022-11-16T11:01:54.692Z,6.90
2022-11-16T11:07:00.058Z,7.40
2022-11-16T11:12:31.520Z,7.20
2022-11-16T11:17:36.889Z,7.17
2022-11-16T11:22:45.139Z,5.90
2022-11-16T11:27:48.315Z,6.80
2022-11-16T11:32:53.490Z,5.50
2022-11-16T11:38:03.363Z,6.00
2022-11-16T11:43:23.013Z,6.07
2022-11-16T11:48:35.650Z,5.10
2022-11-16T11:53:55.438Z,12.13
2022-11-16T11:58:58.764Z,5.60
2022-11-16T12:04:29.913Z,13.50
2022-11-16T12:09:40.737Z,8.80
2022-11-16T12:15:02.003Z,9.43
2022-11-16T12:20:19.234Z,5.40
2022-11-16T12:25:26.347Z,5.37
2022-11-16T12:30:29.414Z,5.70
2022-11-16T12:35:46.425Z,4.70
2022-11-16T12:41:03.598Z,4.77
2022-11-16T12:46:18.750Z,4.20
2022-11-16T12:51:41.197Z,4.90
2022-11-16T12:56:52.528Z,5.00
2022-11-16T13:02:05.916Z,4.20
2022-11-16T13:07:15.209Z,5.33
2022-11-16T13:12:23.366Z,20.70
2022-11-16T13:17:29.676Z,7.13
2022-11-16T13:22:37.814Z,4.87
2022-11-16T13:27:46.513Z,5.10
2022-11-16T13:33:19.534Z,8.47
2022-11-16T13:38:54.179Z,6.90
2022-11-16T13:43:57.342Z,7.00
2022-11-16T13:49:00.376Z,8.43
2022-11-16T13:54:43.943Z,6.70
2022-11-16T13:59:32.090Z,8.47
2022-11-16T14:04:41.810Z,8.83
2022-11-16T14:09:49.917Z,7.73
2022-11-16T14:15:06.486Z,8.10
2022-11-16T14:20:17.173Z,7.17
2022-11-16T14:25:33.391Z,7.40
2022-11-16T14:30:49.898Z,7.47
2022-11-16T14:35:54.030Z,8.40
2022-11-16T14:41:00.179Z,8.60
2022-11-16T14:46:06.971Z,11.60
2022-11-16T14:51:13.904Z,12.03
2022-11-16T14:56:19.798Z,11.23
2022-11-16T15:01:25.986Z,9.50
2022-11-16T15:06:31.187Z,9.93
2022-11-16T15:11:57.768Z,10.90
2022-11-16T15:17:01.407Z,11.43
2022-11-16T15:22:05.487Z,10.97
2022-11-16T15:27:24.519Z,11.30
2022-11-16T15:32:27.643Z,11.30
2022-11-16T15:37:31.613Z,13.80
2022-11-16T15:42:36.922Z,12.10
2022-11-16T15:47:41.713Z,12.50
2022-11-16T15:52:50.331Z,12.83
2022-11-16T15:58:06.557Z,16.30
2022-11-16T16:03:26.496Z,16.80
2022-11-16T16:08:34.914Z,16.40
2022-11-16T16:13:41.639Z,15.40
2022-11-16T16:18:46.225Z,22.77
2022-11-16T16:23:51.984Z,34.30
2022-11-16T16:28:56.893Z,40.73
2022-11-16T16:34:00.534Z,26.73
2022-11-16T16:39:03.437Z,19.00
2022-11-16T16:44:14.919Z,20.70
2022-11-16T16:49:18.417Z,18.30
2022-11-16T16:54:21.683Z,17.40
2022-11-16T16:59:26.430Z,17.90
2022-11-16T17:04:29.499Z,22.20
2022-11-16T17:09:32.405Z,19.87
2022-11-16T17:14:36.707Z,15.70
2022-11-16T17:19:39.652Z,18.17
2022-11-16T17:24:42.702Z,15.57
2022-11-16T17:29:46.949Z,15.73
2022-11-16T17:34:49.864Z,48.10
2022-11-16T17:39:52.753Z,14.27
2022-11-16T17:44:57.101Z,14.40
2022-11-16T17:50:00.619Z,17.00
2022-11-16T17:55:03.559Z,17.27
2022-11-16T18:00:09.511Z,14.37
2022-11-16T18:05:12.402Z,16.57
2022-11-16T18:10:19.253Z,13.20
2022-11-16T18:15:31.073Z,14.10
2022-11-16T18:20:36.911Z,14.10
2022-11-16T18:25:40.153Z,12.40
2022-11-16T18:30:44.411Z,13.07
2022-11-16T18:35:47.301Z,12.53
2022-11-16T18:41:03.939Z,12.93
2022-11-16T18:46:08.550Z,12.83
2022-11-16T18:51:12.320Z,17.83
2022-11-16T18:56:15.876Z,11.60
2022-11-16T19:01:21.945Z,11.10
2022-11-16T19:06:25.124Z,12.50
2022-11-16T19:11:29.346Z,16.20
2022-11-16T19:16:33.646Z,26.33
2022-11-16T19:21:36.551Z,16.90
2022-11-16T19:26:39.653Z,14.50
2022-11-16T19:31:43.975Z,11.97
2022-11-16T19:36:46.949Z,15.10
2022-11-16T19:41:49.919Z,10.20
2022-11-16T19:46:54.521Z,9.20
2022-11-16T19:51:59.390Z,9.27
2022-11-16T19:57:02.370Z,9.27
2022-11-16T20:02:07.145Z,8.53
2022-11-16T20:07:11.856Z,6.50
2022-11-16T20:12:14.817Z,10.30
2022-11-16T20:17:19.220Z,20.07
2022-11-16T20:22:22.345Z,15.50
2022-11-16T20:27:25.454Z,7.70
2022-11-16T20:32:29.774Z,12.57
2022-11-16T20:37:32.727Z,13.53
2022-11-16T20:42:35.688Z,5.00
2022-11-16T20:47:39.987Z,4.90
2022-11-16T20:52:46.095Z,4.03
2022-11-16T20:57:51.446Z,6.20
2022-11-16T21:02:56.384Z,6.87
2022-11-16T21:07:59.543Z,4.53
2022-11-16T21:13:19.972Z,6.40
2022-11-16T21:18:29.372Z,4.60
2022-11-16T21:23:35.530Z,4.70
2022-11-16T21:28:39.005Z,4.00
2022-11-16T21:33:44.607Z,4.10
2022-11-16T21:38:47.913Z,3.60
2022-11-16T21:43:51.147Z,4.23
2022-11-16T21:48:56.486Z,3.77
2022-11-16T21:53:59.798Z,3.60
2022-11-16T21:59:02.702Z,3.30
2022-11-16T22:04:24.389Z,3.97
2022-11-16T22:09:28.466Z,3.20
2022-11-16T22:14:31.517Z,3.83
2022-11-16T22:19:36.055Z,3.60
2022-11-16T22:24:39.194Z,3.73
2022-11-16T22:29:42.302Z,4.70
2022-11-16T22:34:46.972Z,3.47
2022-11-16T22:39:49.920Z,3.40
2022-11-16T22:44:52.830Z,4.47
2022-11-16T22:49:57.083Z,3.37
2022-11-16T22:54:59.995Z,4.07
2022-11-16T23:00:03.845Z,3.97
2022-11-16T23:05:09.076Z,3.17
2022-11-16T23:10:12.080Z,3.33
2022-11-16T23:15:32.819Z,3.63
2022-11-16T23:21:08.870Z,3.70
2022-11-16T23:26:33.972Z,3.77
2022-11-16T23:31:37.808Z,3.87
2022-11-16T23:36:43.688Z,4.20
2022-11-16T23:42:04.304Z,4.00
2022-11-16T23:47:07.406Z,4.57
2022-11-16T23:52:12.777Z,5.30
2022-11-16T23:57:16.793Z,4.43
